Time;durP1;ratioP1;P1;durP2;ratioP2;P2;SDS_P1;SDS_P2;PMS_P1;PMS_P2;Temp;Humidity;BMP_temperature;BMP_pressure;BME280_temperature;BME280_humidity;BME280_pressure;Samples;Min_cycle;Max_cycle;Signal;HPM_P1;HPM_P2
2021/07/19 00:01:28;;;;;;;5.88;1.80;;;21.30;84.60;;;;;;4949381;29;20031;-74
2021/07/19 00:03:54;;;;;;;2.58;1.65;;;21.20;84.70;;;;;;4920233;29;20512;-75
2021/07/19 00:06:20;;;;;;;2.80;1.70;;;21.20;84.60;;;;;;4930700;29;20067;-74
2021/07/19 00:08:46;;;;;;;3.33;1.80;;;21.20;84.50;;;;;;4934350;29;20035;-74
2021/07/19 00:11:13;;;;;;;2.65;1.85;;;21.20;84.20;;;;;;4934658;29;20036;-74
2021/07/19 00:13:39;;;;;;;2.25;1.88;;;21.20;84.40;;;;;;4917097;29;20059;-75
2021/07/19 00:16:05;;;;;;;3.40;2.05;;;21.30;84.20;;;;;;4934654;29;20064;-74
2021/07/19 00:18:30;;;;;;;3.50;2.00;;;21.20;84.20;;;;;;4917432;29;20032;-75
2021/07/19 00:20:58;;;;;;;2.70;2.13;;;21.10;84.80;;;;;;4919876;29;20027;-75
2021/07/19 00:23:24;;;;;;;3.13;1.77;;;21.10;85.10;;;;;;4938653;29;20035;-75
2021/07/19 00:25:51;;;;;;;2.88;2.17;;;21.10;85.00;;;;;;4937457;29;20039;-75
2021/07/19 00:28:16;;;;;;;4.47;2.10;;;21.10;85.20;;;;;;4939026;29;20027;-74
2021/07/19 00:30:42;;;;;;;2.72;1.90;;;21.00;85.30;;;;;;4937626;29;20377;-75
2021/07/19 00:33:08;;;;;;;3.35;2.10;;;21.00;85.20;;;;;;4938677;29;20098;-74
2021/07/19 00:35:34;;;;;;;5.20;2.30;;;21.00;85.40;;;;;;4921293;29;20039;-77
2021/07/19 00:38:00;;;;;;;3.47;2.00;;;21.00;85.50;;;;;;4921211;29;20119;-74
2021/07/19 00:40:28;;;;;;;3.78;1.77;;;21.00;85.70;;;;;;4921404;29;20028;-75
2021/07/19 00:42:54;;;;;;;3.85;1.92;;;21.00;85.60;;;;;;4920997;29;20027;-75
2021/07/19 00:45:24;;;;;;;3.53;2.20;;;20.90;85.70;;;;;;4921531;29;20397;-75
2021/07/19 00:47:52;;;;;;;3.30;1.90;;;20.90;86.40;;;;;;4937778;29;20031;-75
2021/07/19 00:50:19;;;;;;;7.07;1.92;;;20.80;86.50;;;;;;4938814;29;20032;-75
2021/07/19 00:52:45;;;;;;;4.72;2.00;;;20.80;86.50;;;;;;4937900;29;20028;-75
2021/07/19 00:55:12;;;;;;;3.22;1.90;;;20.80;86.60;;;;;;4938260;29;20114;-74
2021/07/19 00:57:39;;;;;;;2.45;1.90;;;20.80;86.80;;;;;;4920812;29;20031;-75
2021/07/19 01:00:09;;;;;;;5.13;2.30;;;20.90;86.40;;;;;;4921056;29;20034;-74
2021/07/19 01:02:42;;;;;;;4.63;2.38;;;20.80;86.50;;;;;;4921008;29;20030;-76
2021/07/19 01:05:09;;;;;;;4.05;2.15;;;20.80;87.40;;;;;;4921279;29;20023;-75
2021/07/19 01:07:38;;;;;;;4.50;2.00;;;20.80;87.00;;;;;;4920375;29;20063;-76
2021/07/19 01:10:17;;;;;;;4.35;2.03;;;20.80;87.00;;;;;;4921184;29;20027;-75
2021/07/19 01:13:02;;;;;;;3.05;1.67;;;20.70;87.40;;;;;;4929365;29;20028;-75
2021/07/19 01:15:30;;;;;;;4.03;2.10;;;20.60;88.10;;;;;;4902651;29;20122;-75
2021/07/19 01:17:55;;;;;;;5.68;2.13;;;20.60;87.90;;;;;;4919050;29;20024;-74
2021/07/19 01:20:28;;;;;;;4.97;1.90;;;20.60;87.70;;;;;;4938126;29;20416;-75
2021/07/19 01:23:13;;;;;;;4.50;2.15;;;20.50;87.40;;;;;;4937344;29;20031;-75
2021/07/19 01:26:31;;;;;;;3.33;2.03;;;20.50;87.70;;;;;;4920467;29;20042;-75
2021/07/19 01:28:59;;;;;;;6.82;2.17;;;20.40;88.10;;;;;;4884904;29;20438;-75
2021/07/19 01:31:28;;;;;;;4.47;1.85;;;20.20;88.50;;;;;;4901571;29;20114;-75
2021/07/19 01:34:05;;;;;;;4.80;2.10;;;20.20;88.70;;;;;;4918562;29;20516;-74
2021/07/19 01:36:36;;;;;;;2.50;2.03;;;20.10;89.00;;;;;;4937887;29;20103;-74
2021/07/19 01:39:05;;;;;;;2.88;1.63;;;20.10;89.30;;;;;;4937595;29;20040;-74
2021/07/19 01:41:33;;;;;;;3.92;1.73;;;20.10;89.10;;;;;;4920506;29;20059;-75
2021/07/19 01:43:59;;;;;;;3.90;1.83;;;20.10;89.10;;;;;;4920048;29;20034;-75
2021/07/19 01:46:27;;;;;;;5.65;2.10;;;20.10;89.00;;;;;;4920031;29;20035;-75
2021/07/19 01:48:53;;;;;;;3.20;1.73;;;20.00;89.40;;;;;;4936638;29;20051;-76
2021/07/19 01:51:20;;;;;;;5.07;2.13;;;20.00;89.30;;;;;;4920189;29;20114;-76
2021/07/19 01:53:48;;;;;;;4.47;2.20;;;20.00;89.60;;;;;;4936418;29;20024;-76
2021/07/19 01:56:14;;;;;;;4.32;2.38;;;20.00;89.60;;;;;;4920061;29;20118;-75
2021/07/19 01:58:40;;;;;;;4.03;2.05;;;20.00;89.60;;;;;;4936513;29;20020;-76
2021/07/19 02:01:06;;;;;;;3.53;1.80;;;20.00;89.50;;;;;;4920291;29;20031;-76
2021/07/19 02:03:33;;;;;;;6.05;2.00;;;19.90;89.80;;;;;;4920299;29;20035;-76
2021/07/19 02:05:59;;;;;;;3.38;2.00;;;19.80;90.00;;;;;;4937739;29;20040;-75
2021/07/19 02:08:27;;;;;;;3.45;2.15;;;19.80;90.00;;;;;;4938697;28;20110;-76
2021/07/19 02:10:56;;;;;;;5.95;2.20;;;19.80;90.10;;;;;;4955877;29;20035;-76
2021/07/19 02:13:25;;;;;;;2.85;2.17;;;19.80;90.10;;;;;;4924940;29;20028;-76
2021/07/19 02:15:55;;;;;;;2.50;1.92;;;19.80;90.20;;;;;;4953832;29;20027;-75
2021/07/19 02:18:23;;;;;;;2.78;1.85;;;19.70;90.10;;;;;;4950730;28;20024;-74
2021/07/19 02:20:50;;;;;;;4.93;2.05;;;19.70;90.10;;;;;;4936342;29;20045;-74
2021/07/19 02:23:18;;;;;;;4.97;1.98;;;19.70;90.20;;;;;;4936730;29;20027;-74
2021/07/19 02:25:46;;;;;;;4.20;2.10;;;19.70;90.30;;;;;;4919480;29;20039;-74
2021/07/19 02:28:12;;;;;;;3.97;2.15;;;19.60;90.30;;;;;;4938568;29;20023;-74
2021/07/19 02:30:39;;;;;;;3.92;2.15;;;19.60;90.30;;;;;;4938092;29;20059;-75
2021/07/19 02:33:06;;;;;;;2.42;1.92;;;19.60;90.30;;;;;;4927315;29;20027;-75
2021/07/19 02:35:32;;;;;;;6.28;2.25;;;19.60;90.50;;;;;;4933760;29;20423;-74
2021/07/19 02:38:02;;;;;;;3.22;2.15;;;19.60;90.40;;;;;;4928798;29;20045;-74
2021/07/19 02:40:28;;;;;;;4.07;1.73;;;19.50;90.50;;;;;;4938356;29;20031;-74
2021/07/19 02:43:00;;;;;;;3.90;1.85;;;19.50;90.50;;;;;;4954407;28;20031;-74
2021/07/19 02:45:27;;;;;;;3.75;1.90;;;19.60;90.40;;;;;;4924719;29;20055;-74
2021/07/19 02:47:54;;;;;;;3.88;1.77;;;19.50;90.40;;;;;;4935757;29;20035;-75
2021/07/19 02:50:24;;;;;;;3.33;1.77;;;19.50;90.40;;;;;;4950352;29;20087;-74
2021/07/19 02:52:51;;;;;;;3.80;1.90;;;19.60;90.30;;;;;;4927663;29;20477;-75
2021/07/19 02:55:18;;;;;;;3.53;2.15;;;19.50;90.30;;;;;;4925560;29;20051;-74
2021/07/19 02:57:44;;;;;;;6.20;2.35;;;19.50;90.30;;;;;;4918909;29;20031;-75
2021/07/19 03:00:13;;;;;;;3.53;2.10;;;19.50;90.30;;;;;;4933727;29;20027;-75
2021/07/19 03:02:43;;;;;;;5.90;2.30;;;19.50;90.20;;;;;;4943294;29;20098;-76
2021/07/19 03:05:11;;;;;;;3.83;1.75;;;19.40;90.20;;;;;;4926490;29;20035;-75
2021/07/19 03:07:38;;;;;;;4.72;2.30;;;19.40;90.40;;;;;;4925014;29;20090;-76
2021/07/19 03:10:08;;;;;;;4.47;1.85;;;19.30;90.40;;;;;;4919174;29;20079;-75
2021/07/19 03:12:36;;;;;;;3.00;2.00;;;19.20;90.60;;;;;;4925574;29;20030;-75
2021/07/19 03:15:04;;;;;;;4.50;1.60;;;19.30;90.50;;;;;;4954792;29;20090;-74
2021/07/19 03:17:31;;;;;;;3.88;2.00;;;19.30;90.60;;;;;;4937621;29;20028;-75
2021/07/19 03:19:58;;;;;;;2.70;2.03;;;19.30;90.60;;;;;;4921373;29;20323;-75
2021/07/19 03:22:26;;;;;;;3.45;2.25;;;19.30;90.50;;;;;;4931926;29;20107;-75
2021/07/19 03:24:53;;;;;;;4.75;2.17;;;19.30;90.50;;;;;;4944013;29;20031;-76
2021/07/19 03:27:21;;;;;;;4.32;1.75;;;19.30;90.60;;;;;;4924010;29;20500;-75
2021/07/19 03:29:48;;;;;;;4.45;1.85;;;19.30;90.50;;;;;;4933454;29;20110;-75
2021/07/19 03:32:16;;;;;;;3.45;1.90;;;19.30;90.60;;;;;;4923311;29;20090;-75
2021/07/19 03:34:43;;;;;;;4.18;1.73;;;19.20;90.70;;;;;;4945740;29;20392;-75
2021/07/19 03:37:10;;;;;;;3.17;1.80;;;19.10;90.70;;;;;;4938760;29;20039;-74
2021/07/19 03:39:39;;;;;;;4.55;2.20;;;19.00;91.10;;;;;;4937288;29;20122;-75
2021/07/19 03:42:05;;;;;;;4.00;1.90;;;18.90;91.10;;;;;;4937309;29;20031;-75
2021/07/19 03:44:33;;;;;;;3.33;2.00;;;18.90;91.10;;;;;;4930829;29;20381;-75
2021/07/19 03:46:59;;;;;;;2.20;1.70;;;18.90;91.00;;;;;;4934884;29;20104;-75
2021/07/19 03:49:25;;;;;;;6.50;1.77;;;19.00;90.80;;;;;;4917614;29;20031;-75
2021/07/19 03:51:51;;;;;;;5.05;1.90;;;19.00;90.70;;;;;;4949793;29;20040;-75
2021/07/19 03:54:17;;;;;;;3.63;2.00;;;19.00;90.80;;;;;;4922648;29;20373;-75
2021/07/19 03:56:44;;;;;;;2.50;1.60;;;19.00;90.60;;;;;;4928041;29;20491;-75
2021/07/19 03:59:10;;;;;;;2.72;1.80;;;19.00;90.50;;;;;;4928818;29;20054;-75
2021/07/19 04:01:38;;;;;;;5.55;1.73;;;18.90;90.70;;;;;;4936593;29;20464;-77
2021/07/19 04:04:09;;;;;;;5.05;2.00;;;18.90;90.80;;;;;;4938352;29;20023;-75
2021/07/19 04:06:38;;;;;;;;;;;18.80;90.90;;;;;;4929542;29;20051;-76
2021/07/19 04:09:05;;;;;;;4.43;1.75;;;18.80;91.00;;;;;;4928122;29;19961;-74
2021/07/19 04:11:32;;;;;;;3.22;1.85;;;18.80;90.90;;;;;;4936147;29;20034;-74
2021/07/19 04:13:58;;;;;;;1.90;1.70;;;18.80;91.00;;;;;;4935518;29;20054;-74
2021/07/19 04:16:24;;;;;;;2.22;1.70;;;18.70;91.10;;;;;;4936251;29;20031;-74
2021/07/19 04:18:51;;;;;;;3.70;1.73;;;18.80;91.10;;;;;;4926443;29;20032;-75
2021/07/19 04:21:18;;;;;;;3.47;1.70;;;18.70;91.20;;;;;;4929661;29;20032;-73
2021/07/19 04:23:43;;;;;;;2.42;1.45;;;18.80;91.10;;;;;;4952340;29;20036;-75
2021/07/19 04:26:14;;;;;;;2.13;1.55;;;18.70;91.20;;;;;;4917106;29;20031;-74
2021/07/19 04:28:40;;;;;;;3.45;1.63;;;18.70;91.20;;;;;;4916059;29;20078;-75
2021/07/19 04:31:07;;;;;;;4.50;1.80;;;18.80;91.20;;;;;;4934130;29;20036;-74
2021/07/19 04:33:33;;;;;;;3.75;1.80;;;18.80;91.20;;;;;;4948632;29;20037;-74
2021/07/19 04:35:59;;;;;;;3.83;1.70;;;18.70;91.40;;;;;;4919756;29;20063;-74
2021/07/19 04:38:25;;;;;;;3.42;1.67;;;18.60;91.50;;;;;;4936038;29;20440;-74
2021/07/19 04:40:53;;;;;;;2.35;1.30;;;18.60;91.50;;;;;;4952047;29;20132;-75
2021/07/19 04:43:20;;;;;;;2.85;1.35;;;18.70;91.50;;;;;;4936245;29;20126;-74
2021/07/19 04:45:47;;;;;;;3.55;1.63;;;18.70;91.50;;;;;;4918648;29;20060;-74
2021/07/19 04:48:17;;;;;;;3.83;2.15;;;18.80;91.40;;;;;;4921023;29;20027;-74
2021/07/19 04:50:44;;;;;;;6.72;1.83;;;18.80;91.50;;;;;;4927127;29;20094;-75
2021/07/19 04:53:10;;;;;;;2.92;1.80;;;18.70;91.50;;;;;;4945621;29;20162;-75
2021/07/19 04:55:38;;;;;;;2.90;1.55;;;18.70;91.60;;;;;;4919853;29;20115;-78
2021/07/19 04:58:06;;;;;;;3.78;1.70;;;18.80;91.60;;;;;;4932094;29;20024;-74
2021/07/19 05:00:35;;;;;;;3.97;1.70;;;18.80;91.50;;;;;;4939946;29;20091;-75
2021/07/19 05:03:03;;;;;;;4.97;1.70;;;18.70;91.60;;;;;;4942081;29;20070;-75
2021/07/19 05:05:30;;;;;;;2.75;1.60;;;18.80;91.50;;;;;;4917330;29;20055;-75
2021/07/19 05:07:57;;;;;;;2.45;1.80;;;18.80;91.60;;;;;;4916874;29;1114678;-75
2021/07/19 05:10:26;;;;;;;3.85;1.77;;;18.90;91.60;;;;;;4939551;29;20032;-75
2021/07/19 05:12:52;;;;;;;3.78;1.73;;;18.90;91.50;;;;;;4947322;29;20036;-74
2021/07/19 05:15:19;;;;;;;3.40;1.50;;;18.90;91.50;;;;;;4933913;29;20374;-75
2021/07/19 05:17:45;;;;;;;5.30;1.90;;;18.90;91.60;;;;;;4923001;29;20024;-75
2021/07/19 05:20:20;;;;;;;2.30;1.70;;;19.00;91.60;;;;;;4920919;29;20079;-75
2021/07/19 05:22:47;;;;;;;2.95;1.92;;;19.00;91.60;;;;;;4924477;29;20117;-75
2021/07/19 05:25:14;;;;;;;3.63;2.35;;;19.00;91.70;;;;;;4927416;29;20032;-75
2021/07/19 05:28:01;;;;;;;5.38;2.38;;;19.10;91.60;;;;;;4952654;29;20082;-75
2021/07/19 05:30:28;;;;;;;7.18;2.83;;;19.20;91.60;;;;;;4920608;29;20095;-75
2021/07/19 05:32:54;;;;;;;5.80;4.07;;;19.30;91.60;;;;;;4929557;29;20134;-75
2021/07/19 05:35:20;;;;;;;4.32;2.90;;;19.30;91.90;;;;;;4939638;29;20027;-75
2021/07/19 05:37:46;;;;;;;8.68;2.83;;;19.30;91.60;;;;;;4929216;29;20035;-75
2021/07/19 05:40:13;;;;;;;5.00;2.72;;;19.40;91.60;;;;;;4941706;29;20023;-75
2021/07/19 05:42:39;;;;;;;3.92;2.83;;;19.40;91.50;;;;;;4938794;29;20174;-76
2021/07/19 05:45:06;;;;;;;4.53;2.60;;;19.50;91.40;;;;;;4939492;29;20032;-75
2021/07/19 05:47:33;;;;;;;7.15;3.40;;;19.50;91.40;;;;;;4938447;29;20601;-75
2021/07/19 05:49:59;;;;;;;4.72;2.78;;;19.60;91.40;;;;;;4920250;29;20035;-75
2021/07/19 05:52:25;;;;;;;6.80;3.42;;;19.70;91.40;;;;;;4925826;29;20023;-75
2021/07/19 05:54:51;;;;;;;12.98;3.47;;;19.70;91.20;;;;;;4928964;29;20032;-75
2021/07/19 05:57:16;;;;;;;6.15;3.35;;;19.80;91.10;;;;;;4949203;29;20515;-75
2021/07/19 05:59:42;;;;;;;5.82;3.40;;;19.80;90.90;;;;;;4938869;29;20042;-75
2021/07/19 06:02:08;;;;;;;4.85;2.90;;;19.90;90.80;;;;;;4934419;29;20031;-75
2021/07/19 06:04:33;;;;;;;5.63;2.85;;;19.90;90.70;;;;;;4926758;29;20030;-75
2021/07/19 06:06:59;;;;;;;4.68;2.78;;;19.90;90.70;;;;;;4936678;29;20448;-74
2021/07/19 06:09:25;;;;;;;6.07;3.20;;;19.90;90.80;;;;;;4938507;29;20038;-74
2021/07/19 06:11:51;;;;;;;5.38;3.53;;;19.90;90.70;;;;;;4938955;29;20031;-74
2021/07/19 06:14:16;;;;;;;9.35;3.30;;;20.00;90.40;;;;;;4951419;29;20028;-75
2021/07/19 06:16:42;;;;;;;8.40;4.03;;;20.00;90.50;;;;;;4926161;29;20035;-75
2021/07/19 06:19:08;;;;;;;7.18;3.50;;;20.10;90.50;;;;;;4943326;29;20058;-75
2021/07/19 06:21:34;;;;;;;5.32;3.22;;;20.10;90.40;;;;;;4951509;29;20031;-77
2021/07/19 06:23:59;;;;;;;6.07;3.60;;;20.10;90.20;;;;;;4935008;29;20038;-75
2021/07/19 06:26:25;;;;;;;6.53;3.40;;;20.20;90.00;;;;;;4919469;29;20066;-75
2021/07/19 06:28:51;;;;;;;6.65;3.50;;;20.30;90.10;;;;;;4944573;29;20130;-75
2021/07/19 06:31:16;;;;;;;6.20;3.30;;;20.30;89.70;;;;;;4942283;29;20120;-75
2021/07/19 06:33:42;;;;;;;6.68;3.50;;;20.30;89.70;;;;;;4933753;29;20027;-75
2021/07/19 06:36:08;;;;;;;5.20;3.28;;;20.40;90.00;;;;;;4942011;28;20062;-75
2021/07/19 06:38:33;;;;;;;5.60;3.00;;;20.40;89.70;;;;;;4960404;28;20042;-75
2021/07/19 06:41:00;;;;;;;6.63;3.55;;;20.40;89.60;;;;;;4944356;29;20039;-74
2021/07/19 06:43:25;;;;;;;6.55;3.70;;;20.40;89.70;;;;;;4932684;29;20055;-74
2021/07/19 06:45:51;;;;;;;4.45;3.00;;;20.50;89.70;;;;;;4938740;29;20501;-74
2021/07/19 06:48:17;;;;;;;5.40;3.58;;;20.50;89.40;;;;;;4932942;29;20023;-74
2021/07/19 06:50:43;;;;;;;6.78;3.42;;;20.50;89.30;;;;;;4926565;29;20472;-75
2021/07/19 06:53:09;;;;;;;4.85;3.10;;;20.60;89.20;;;;;;4926356;29;20062;-74
2021/07/19 06:55:35;;;;;;;5.68;3.10;;;20.60;89.10;;;;;;4933458;29;20432;-77
2021/07/19 06:58:00;;;;;;;5.32;3.13;;;20.60;88.90;;;;;;4938658;29;20110;-74
2021/07/19 07:00:26;;;;;;;10.60;4.10;;;20.70;88.90;;;;;;4948801;29;20020;-75
2021/07/19 07:02:52;;;;;;;5.85;3.10;;;20.70;88.50;;;;;;4927303;29;20491;-75
2021/07/19 07:05:17;;;;;;;5.88;3.20;;;20.70;88.60;;;;;;4941995;29;20060;-74
2021/07/19 07:07:44;;;;;;;8.27;3.20;;;20.80;88.90;;;;;;4950476;29;20066;-75
2021/07/19 07:10:10;;;;;;;6.43;3.40;;;20.80;89.20;;;;;;4937677;29;20027;-75
2021/07/19 07:12:39;;;;;;;5.85;3.15;;;20.90;88.90;;;;;;4947111;29;20054;-77
2021/07/19 07:15:05;;;;;;;5.57;3.63;;;20.90;88.90;;;;;;4945527;29;20024;-74
2021/07/19 07:17:31;;;;;;;6.50;3.50;;;20.90;88.60;;;;;;4933902;29;20024;-73
2021/07/19 07:19:57;;;;;;;6.07;3.80;;;21.00;88.00;;;;;;4950728;29;20082;-75
2021/07/19 07:22:23;;;;;;;6.35;3.00;;;21.00;87.80;;;;;;4941046;29;20031;-74
2021/07/19 07:24:49;;;;;;;6.53;3.40;;;21.00;87.40;;;;;;4928122;29;20028;-74
2021/07/19 07:27:17;;;;;;;7.40;3.00;;;21.00;87.40;;;;;;4930799;29;20468;-74
2021/07/19 07:29:42;;;;;;;4.43;2.92;;;21.10;87.50;;;;;;4920937;29;20036;-75
2021/07/19 07:32:08;;;;;;;5.80;3.17;;;21.10;87.70;;;;;;4950879;29;20034;-75
2021/07/19 07:34:34;;;;;;;8.43;3.58;;;21.20;87.70;;;;;;4925405;29;20465;-74
2021/07/19 07:37:00;;;;;;;6.70;3.35;;;21.20;87.00;;;;;;4928554;29;20067;-74
2021/07/19 07:39:25;;;;;;;5.72;3.50;;;21.20;86.90;;;;;;4937530;29;20479;-75
2021/07/19 07:41:51;;;;;;;6.43;3.13;;;21.20;86.90;;;;;;4920494;29;20481;-75
2021/07/19 07:44:17;;;;;;;6.95;3.90;;;21.30;87.00;;;;;;4949580;29;20091;-75
2021/07/19 07:46:43;;;;;;;4.20;3.33;;;21.40;86.90;;;;;;4926178;29;20130;-76
2021/07/19 07:49:09;;;;;;;8.07;3.67;;;21.40;86.80;;;;;;4925822;29;20524;-76
2021/07/19 07:51:35;;;;;;;5.45;3.28;;;21.40;86.60;;;;;;4932388;29;20031;-79
2021/07/19 07:54:00;;;;;;;7.63;3.45;;;21.40;86.50;;;;;;4938244;29;20046;-76
2021/07/19 07:56:27;;;;;;;6.53;3.55;;;21.40;86.70;;;;;;4931367;29;20369;-76
2021/07/19 07:58:53;;;;;;;4.93;3.50;;;21.50;86.20;;;;;;4927237;29;20480;-76
2021/07/19 08:01:19;;;;;;;6.18;3.55;;;21.50;86.20;;;;;;4941665;29;20032;-76
2021/07/19 08:03:45;;;;;;;5.20;3.35;;;21.50;86.10;;;;;;4933955;29;20027;-79
2021/07/19 08:06:11;;;;;;;5.18;3.00;;;21.50;86.50;;;;;;4922552;29;20519;-79
2021/07/19 08:08:37;;;;;;;8.10;3.25;;;21.60;86.80;;;;;;4929769;29;20515;-78
2021/07/19 08:11:03;;;;;;;5.70;3.60;;;21.60;86.00;;;;;;4955055;29;20031;-78
2021/07/19 08:13:29;;;;;;;5.35;3.40;;;21.60;85.60;;;;;;4937730;29;20027;-78
2021/07/19 08:15:55;;;;;;;5.53;3.28;;;21.70;85.80;;;;;;4938164;29;20040;-78
2021/07/19 08:18:21;;;;;;;6.93;3.55;;;21.70;86.20;;;;;;4932264;29;20071;-79
2021/07/19 08:20:46;;;;;;;7.43;3.45;;;21.80;85.70;;;;;;4926548;29;20031;-73
2021/07/19 08:23:13;;;;;;;6.00;2.80;;;21.80;85.10;;;;;;4941941;29;20039;-73
2021/07/19 08:25:38;;;;;;;6.65;3.08;;;21.80;84.70;;;;;;4949256;29;20040;-74
2021/07/19 08:28:05;;;;;;;7.80;3.83;;;21.80;85.00;;;;;;4935425;29;20031;-77
2021/07/19 08:30:31;;;;;;;5.70;2.88;;;21.80;85.20;;;;;;4941942;29;20027;-76
2021/07/19 08:32:58;;;;;;;6.20;3.40;;;21.90;84.80;;;;;;4943709;29;20020;-77
2021/07/19 08:35:24;;;;;;;7.57;3.58;;;22.00;84.80;;;;;;4948642;29;20117;-75
2021/07/19 08:37:50;;;;;;;4.75;3.28;;;22.00;84.70;;;;;;4927808;29;20138;-77
2021/07/19 08:40:21;;;;;;;5.25;3.55;;;22.10;84.80;;;;;;4949854;28;20511;-74
2021/07/19 08:42:48;;;;;;;5.57;3.13;;;22.00;84.40;;;;;;4946785;29;20061;-74
2021/07/19 08:45:14;;;;;;;5.25;3.40;;;22.10;84.00;;;;;;4945439;29;20028;-74
2021/07/19 08:47:41;;;;;;;5.70;3.20;;;22.10;84.20;;;;;;4953940;29;20028;-75
2021/07/19 08:50:09;;;;;;;7.72;3.30;;;22.10;84.20;;;;;;4921595;29;20023;-74
2021/07/19 08:52:36;;;;;;;7.25;2.92;;;22.20;84.70;;;;;;4945413;29;20034;-79
2021/07/19 08:55:06;;;;;;;4.28;2.60;;;22.30;83.70;;;;;;4946865;29;20027;-73
2021/07/19 08:57:32;;;;;;;5.07;2.92;;;22.30;82.90;;;;;;4953599;29;20055;-73
2021/07/19 09:00:05;;;;;;;4.20;3.00;;;22.30;83.10;;;;;;4924056;29;20066;-74
2021/07/19 09:02:31;;;;;;;7.50;3.25;;;22.30;83.30;;;;;;4950956;29;20158;-74
2021/07/19 09:04:57;;;;;;;5.03;2.92;;;22.40;82.90;;;;;;4920666;29;20035;-76
2021/07/19 09:07:23;;;;;;;6.32;2.95;;;22.40;83.50;;;;;;4934211;29;20055;-74
2021/07/19 09:09:51;;;;;;;7.20;3.47;;;22.50;83.80;;;;;;4955694;29;20548;-74
2021/07/19 09:12:17;;;;;;;6.20;3.45;;;22.50;83.80;;;;;;4925888;29;20461;-73
2021/07/19 09:14:47;;;;;;;5.97;3.30;;;22.60;83.80;;;;;;4948769;29;20032;-74
2021/07/19 09:17:27;;;;;;;7.00;3.00;;;22.60;83.90;;;;;;4938168;29;20039;-74
2021/07/19 09:19:55;;;;;;;4.35;2.83;;;22.70;83.70;;;;;;4936092;29;20396;-75
2021/07/19 09:22:26;;;;;;;4.10;2.90;;;22.70;83.70;;;;;;4926281;29;20042;-74
2021/07/19 09:24:52;;;;;;;6.00;3.25;;;22.80;82.60;;;;;;4947226;29;20485;-74
2021/07/19 09:27:20;;;;;;;5.07;3.00;;;22.80;82.40;;;;;;4933637;29;20046;-74
2021/07/19 09:29:47;;;;;;;5.28;3.05;;;22.90;82.40;;;;;;4940581;29;20028;-74
2021/07/19 09:32:12;;;;;;;3.92;2.85;;;22.90;82.20;;;;;;4935609;29;20034;-74
2021/07/19 09:34:38;;;;;;;7.20;3.28;;;22.80;82.40;;;;;;4927752;29;20023;-75
2021/07/19 09:37:10;;;;;;;4.35;3.00;;;22.80;82.30;;;;;;4930388;29;20055;-76
2021/07/19 09:39:46;;;;;;;;;;;22.90;82.60;;;;;;4924826;29;20035;-80
2021/07/19 09:42:23;;;;;;;5.63;2.90;;;22.90;82.10;;;;;;4925070;29;19906;-76
2021/07/19 09:44:52;;;;;;;5.18;3.30;;;23.00;82.40;;;;;;4947412;29;20024;-74
2021/07/19 09:47:18;;;;;;;6.57;3.25;;;23.00;81.70;;;;;;4933208;29;20031;-74
2021/07/19 09:49:44;;;;;;;5.10;2.85;;;23.10;82.10;;;;;;4923354;29;20114;-74
2021/07/19 09:52:12;;;;;;;7.40;3.85;;;23.10;81.70;;;;;;4935473;29;20030;-72
2021/07/19 09:54:45;;;;;;;6.63;2.92;;;23.10;81.70;;;;;;4927271;29;20027;-74
2021/07/19 09:57:12;;;;;;;5.78;3.45;;;23.20;81.40;;;;;;4944543;29;20040;-74
2021/07/19 09:59:54;;;;;;;3.90;2.60;;;23.20;81.10;;;;;;4951598;29;20106;-73
2021/07/19 10:02:53;;;;;;;5.43;3.03;;;23.20;80.90;;;;;;4925508;29;20035;-73
2021/07/19 10:05:30;;;;;;;4.90;2.95;;;23.20;80.20;;;;;;4911636;29;20127;-74
2021/07/19 10:07:59;;;;;;;3.80;2.22;;;23.20;79.40;;;;;;4946754;29;20461;-73
2021/07/19 10:10:39;;;;;;;4.38;2.63;;;23.30;79.50;;;;;;4950452;29;20020;-73
2021/07/19 10:13:08;;;;;;;3.92;3.25;;;23.40;79.40;;;;;;4931069;29;20027;-75
2021/07/19 10:15:36;;;;;;;4.15;2.60;;;23.40;79.40;;;;;;4940808;29;20409;-74
2021/07/19 10:18:09;;;;;;;3.25;2.58;;;23.50;79.40;;;;;;4935269;29;20110;-74
2021/07/19 10:20:36;;;;;;;5.60;2.40;;;23.50;78.70;;;;;;4926889;29;20057;-77
2021/07/19 10:23:03;;;;;;;7.88;2.83;;;23.50;78.30;;;;;;4938551;29;20023;-73
2021/07/19 10:25:29;;;;;;;6.32;2.30;;;23.60;77.50;;;;;;4941590;29;20032;-74
2021/07/19 10:27:56;;;;;;;6.05;2.42;;;23.50;77.20;;;;;;4934728;29;20629;-73
2021/07/19 10:30:21;;;;;;;4.38;2.10;;;23.60;76.80;;;;;;4937250;29;20038;-74
2021/07/19 10:32:47;;;;;;;5.75;2.58;;;23.70;76.80;;;;;;4945109;29;20443;-75
2021/07/19 10:35:15;;;;;;;3.00;2.50;;;23.70;77.00;;;;;;4943476;29;20035;-75
2021/07/19 10:38:03;;;;;;;7.75;2.63;;;23.70;77.00;;;;;;4951923;29;20039;-78
2021/07/19 10:40:32;;;;;;;3.38;2.22;;;23.80;76.70;;;;;;4932415;29;20051;-77
2021/07/19 10:43:10;;;;;;;4.30;2.53;;;23.80;76.70;;;;;;4946432;29;20031;-73
2021/07/19 10:45:59;;;;;;;6.90;2.55;;;23.80;76.30;;;;;;4940098;29;20038;-77
2021/07/19 10:48:33;;;;;;;4.70;2.70;;;23.90;76.30;;;;;;4951850;28;20031;-74
2021/07/19 10:51:12;;;;;;;5.35;3.00;;;24.00;76.80;;;;;;4927616;29;20028;-74
2021/07/19 10:53:37;;;;;;;4.30;2.80;;;24.00;77.20;;;;;;4934250;29;20038;-74
2021/07/19 10:56:08;;;;;;;5.25;2.45;;;24.00;76.60;;;;;;4951870;29;20023;-74
2021/07/19 10:58:38;;;;;;;8.95;2.97;;;24.00;76.30;;;;;;4943670;29;20047;-73
2021/07/19 11:01:04;;;;;;;4.15;2.40;;;24.00;76.10;;;;;;4944157;29;20031;-74
2021/07/19 11:03:40;;;;;;;7.70;2.70;;;24.10;76.50;;;;;;4949884;28;20058;-75
2021/07/19 11:06:06;;;;;;;5.28;2.88;;;24.10;76.60;;;;;;4937307;29;20492;-74
2021/07/19 11:08:32;;;;;;;4.88;2.70;;;24.10;76.10;;;;;;4955288;29;20043;-73
2021/07/19 11:10:58;;;;;;;5.90;2.30;;;24.20;75.00;;;;;;4943956;29;20032;-75
2021/07/19 11:13:34;;;;;;;7.28;2.70;;;24.30;76.00;;;;;;4949444;29;20027;-76
2021/07/19 11:16:14;;;;;;;3.88;2.22;;;24.30;74.90;;;;;;4921841;29;20040;-77
2021/07/19 11:18:40;;;;;;;6.25;2.38;;;24.30;73.40;;;;;;4929720;29;20057;-77
2021/07/19 11:21:06;;;;;;;4.40;2.50;;;24.30;74.00;;;;;;4930422;29;20027;-77
2021/07/19 11:23:32;;;;;;;4.05;2.13;;;24.40;73.60;;;;;;4938384;29;20035;-77
2021/07/19 11:26:00;;;;;;;3.58;2.20;;;24.50;73.30;;;;;;4938613;29;20116;-74
2021/07/19 11:28:28;;;;;;;3.85;2.17;;;24.50;73.20;;;;;;4937779;29;20090;-73
2021/07/19 11:31:02;;;;;;;3.42;2.20;;;24.50;71.50;;;;;;4954715;29;20033;-73
2021/07/19 11:33:40;;;;;;;2.97;2.25;;;24.60;72.30;;;;;;4955075;29;20081;-75
2021/07/19 11:36:18;;;;;;;6.68;2.60;;;24.60;71.90;;;;;;4937668;29;20503;-73
2021/07/19 11:38:44;;;;;;;3.92;2.42;;;24.60;71.60;;;;;;4936739;29;20035;-74
2021/07/19 11:41:19;;;;;;;8.05;2.92;;;24.60;72.10;;;;;;4955032;29;20027;-74
2021/07/19 11:43:46;;;;;;;3.20;2.40;;;24.60;71.70;;;;;;4954144;29;20090;-75
2021/07/19 11:46:12;;;;;;;6.47;2.65;;;24.60;70.70;;;;;;4937624;29;20042;-74
2021/07/19 11:48:42;;;;;;;2.58;2.22;;;24.60;70.10;;;;;;4954593;29;20035;-74
2021/07/19 11:51:08;;;;;;;3.95;2.25;;;24.70;70.10;;;;;;4954810;29;20031;-73
2021/07/19 11:53:42;;;;;;;5.30;2.35;;;24.70;69.40;;;;;;4954456;29;20027;-77
2021/07/19 11:56:08;;;;;;;3.45;2.10;;;24.80;69.30;;;;;;4963531;28;20043;-73
2021/07/19 11:58:34;;;;;;;2.72;2.30;;;24.70;68.80;;;;;;4956816;28;20027;-74
2021/07/19 12:01:04;;;;;;;3.70;2.63;;;24.80;69.60;;;;;;4973448;28;20460;-74
2021/07/19 12:03:30;;;;;;;2.90;2.20;;;24.80;69.50;;;;;;4956590;28;20030;-74
2021/07/19 12:05:57;;;;;;;4.70;2.33;;;24.80;69.10;;;;;;4972978;28;20061;-74
2021/07/19 12:08:33;;;;;;;4.45;2.10;;;24.80;68.00;;;;;;4943277;29;20035;-74
2021/07/19 12:11:06;;;;;;;2.63;2.42;;;24.90;67.10;;;;;;4954187;29;20026;-74
2021/07/19 12:13:34;;;;;;;3.95;2.28;;;24.90;68.10;;;;;;4937379;29;20027;-74
2021/07/19 12:16:00;;;;;;;2.70;2.30;;;25.00;68.70;;;;;;4935820;29;20477;-74
2021/07/19 12:18:30;;;;;;;3.78;2.55;;;25.10;69.30;;;;;;4954568;29;20086;-74
2021/07/19 12:21:05;;;;;;;3.13;2.60;;;25.10;65.80;;;;;;4936668;29;20232;-74
2021/07/19 12:23:48;;;;;;;6.20;2.30;;;25.10;65.50;;;;;;4937389;29;20114;-74
2021/07/19 12:26:47;;;;;;;4.03;2.33;;;25.20;66.20;;;;;;4937282;29;20023;-74
2021/07/19 12:29:34;;;;;;;3.33;2.08;;;25.10;65.40;;;;;;4937169;29;20405;-74
2021/07/19 12:32:04;;;;;;;3.25;2.38;;;25.20;65.50;;;;;;4936928;29;20058;-74
2021/07/19 12:34:36;;;;;;;4.03;2.33;;;25.20;65.60;;;;;;4954414;29;20065;-73
2021/07/19 12:37:07;;;;;;;4.97;2.25;;;25.20;65.70;;;;;;4954476;29;20118;-74
2021/07/19 12:39:35;;;;;;;5.13;2.35;;;25.30;67.80;;;;;;4936748;29;20035;-73
2021/07/19 12:42:10;;;;;;;4.78;2.28;;;25.40;66.20;;;;;;4953842;29;20031;-73
2021/07/19 12:44:36;;;;;;;4.78;2.17;;;25.50;65.70;;;;;;4937141;29;20027;-78
2021/07/19 12:47:03;;;;;;;5.32;2.65;;;25.60;64.20;;;;;;4954307;29;20027;-73
2021/07/19 12:49:32;;;;;;;3.65;2.20;;;25.70;63.50;;;;;;4954299;29;20107;-73
2021/07/19 12:52:06;;;;;;;3.33;2.35;;;25.80;62.10;;;;;;4953602;29;20031;-74
2021/07/19 12:54:33;;;;;;;3.78;2.42;;;25.90;61.90;;;;;;4953950;29;20436;-74